Time;durP1;ratioP1;P1;durP2;ratioP2;P2;SDS_P1;SDS_P2;PMS_P1;PMS_P2;Temp;Humidity;BMP_temperature;BMP_pressure;BME280_temperature;BME280_humidity;BME280_pressure;Samples;Min_cycle;Max_cycle;Signal;HPM_P1;HPM_P2
2022/05/19 00:01:18;;;;;;;7.90;3.63;;;;;;;7.69;72.55;94943.75;5065653;28;20084;-74
2022/05/19 00:03:44;;;;;;;7.78;3.42;;;;;;;7.68;72.70;94944.81;5065419;28;20683;-75
2022/05/19 00:06:11;;;;;;;6.18;3.53;;;;;;;7.63;72.58;94948.25;5065658;28;20029;-75
2022/05/19 00:08:37;;;;;;;5.93;3.72;;;;;;;7.59;72.88;94948.00;5065340;28;20036;-75
2022/05/19 00:11:11;;;;;;;7.65;3.45;;;;;;;7.59;72.67;94944.53;5065092;28;20028;-75
2022/05/19 00:13:37;;;;;;;4.13;3.08;;;;;;;7.58;72.40;94945.63;5065384;28;20035;-75
2022/05/19 00:16:05;;;;;;;5.03;3.60;;;;;;;7.52;72.01;94946.69;5065060;28;20032;-75
2022/05/19 00:18:31;;;;;;;7.75;3.25;;;;;;;7.47;72.22;94936.06;5065353;28;20029;-75
2022/05/19 00:20:57;;;;;;;8.13;3.75;;;;;;;7.48;72.03;94941.13;5065069;28;20024;-73
2022/05/19 00:23:23;;;;;;;6.40;3.70;;;;;;;7.48;71.86;94945.63;5065167;28;20349;-74
2022/05/19 00:25:48;;;;;;;6.20;3.60;;;;;;;7.48;71.85;94940.31;5065138;28;20036;-74
2022/05/19 00:28:14;;;;;;;5.55;3.15;;;;;;;7.39;71.90;94946.16;5064931;28;20071;-74
2022/05/19 00:30:40;;;;;;;5.82;3.65;;;;;;;7.34;72.42;94940.06;5064956;28;20052;-74
2022/05/19 00:33:06;;;;;;;4.88;3.15;;;;;;;7.34;72.47;94938.19;5064921;28;20323;-73
2022/05/19 00:35:32;;;;;;;10.18;2.92;;;;;;;7.30;72.45;94950.41;5064687;28;20082;-74
2022/05/19 00:37:57;;;;;;;6.13;3.13;;;;;;;7.30;72.58;94950.41;5064626;28;20029;-74
2022/05/19 00:40:24;;;;;;;12.88;3.85;;;;;;;7.26;72.93;94949.34;5064669;28;20028;-74
2022/05/19 00:42:51;;;;;;;5.93;3.33;;;;;;;7.23;72.83;94947.22;5064746;28;20040;-74
2022/05/19 00:45:26;;;;;;;5.85;3.30;;;;;;;7.25;72.82;94947.75;5064576;28;20033;-75
2022/05/19 00:48:12;;;;;;;7.80;3.67;;;;;;;7.25;72.64;94961.03;5064560;28;20307;-75
2022/05/19 00:50:47;;;;;;;12.90;3.33;;;;;;;7.27;72.41;94958.91;5064614;28;20021;-75
2022/05/19 00:53:28;;;;;;;6.07;3.33;;;;;;;7.22;72.46;94957.03;5064634;28;20029;-75
2022/05/19 00:55:56;;;;;;;6.45;3.45;;;;;;;7.22;72.68;94959.69;5063889;28;20021;-75
2022/05/19 00:58:36;;;;;;;7.95;3.63;;;;;;;7.26;72.39;94965.25;5064505;28;20017;-75
2022/05/19 01:01:03;;;;;;;6.03;3.38;;;;;;;7.26;72.70;94965.25;5064450;28;20323;-75
2022/05/19 01:03:33;;;;;;;7.00;4.15;;;;;;;7.27;72.60;94964.19;5064351;28;20123;-75
2022/05/19 01:06:07;;;;;;;8.13;3.72;;;;;;;7.30;72.34;94966.31;5064177;28;20024;-75
2022/05/19 01:08:38;;;;;;;9.50;3.92;;;;;;;7.31;72.14;94967.91;5064226;28;20032;-75
2022/05/19 01:11:06;;;;;;;6.35;3.50;;;;;;;7.29;72.32;94970.03;5064138;28;20036;-74
2022/05/19 01:13:34;;;;;;;5.38;3.30;;;;;;;7.32;72.13;94974.78;5064045;28;20323;-74
2022/05/19 01:16:00;;;;;;;9.40;3.72;;;;;;;7.33;71.93;94976.41;5064080;28;20430;-74
2022/05/19 01:18:28;;;;;;;23.60;3.60;;;;;;;7.34;71.89;94980.63;5063899;28;20315;-74
2022/05/19 01:20:55;;;;;;;7.65;3.50;;;;;;;7.34;71.63;94985.16;5063958;28;20039;-75
2022/05/19 01:23:37;;;;;;;6.63;3.90;;;;;;;7.33;71.78;94981.72;5063795;28;20074;-72
2022/05/19 01:26:12;;;;;;;;;;;;;;;7.32;71.73;94982.75;5064032;28;20045;-72
2022/05/19 01:28:37;;;;;;;5.63;3.25;;;;;;;7.26;71.80;94983.81;5063861;28;19909;-72
2022/05/19 01:31:03;;;;;;;6.57;3.78;;;;;;;7.27;71.81;94981.97;5063505;28;20064;-72
2022/05/19 01:33:28;;;;;;;8.68;3.30;;;;;;;7.27;71.59;94977.47;5063625;28;20024;-73
2022/05/19 01:35:54;;;;;;;5.95;3.42;;;;;;;7.24;71.73;94972.66;5063521;28;20021;-72
2022/05/19 01:38:24;;;;;;;10.98;3.70;;;;;;;7.25;71.88;94973.50;5063624;28;20039;-72
2022/05/19 01:40:53;;;;;;;4.00;2.95;;;;;;;7.23;71.67;94984.34;5063662;28;20024;-72
2022/05/19 01:43:57;;;;;;;5.70;3.13;;;;;;;7.18;71.55;94976.38;5063294;28;20052;-72
2022/05/19 01:46:29;;;;;;;8.45;3.05;;;;;;;7.17;71.79;94980.91;5032817;28;20255;-73
2022/05/19 01:49:04;;;;;;;9.13;3.38;;;;;;;7.16;71.52;94983.81;5063489;28;20020;-72
2022/05/19 01:51:45;;;;;;;14.23;2.53;;;;;;;7.13;71.53;94979.81;5063303;28;20104;-72
2022/05/19 01:54:19;;;;;;;11.32;3.08;;;;;;;7.08;71.54;94979.81;5063465;28;20033;-72
2022/05/19 01:57:05;;;;;;;4.38;2.63;;;;;;;7.09;71.41;94984.06;5063115;28;20315;-72
2022/05/19 01:59:44;;;;;;;5.65;3.10;;;;;;;7.09;71.63;94999.97;5063348;28;20086;-72
2022/05/19 02:02:24;;;;;;;4.28;2.75;;;;;;;7.12;71.84;94996.00;5063213;28;20028;-73
2022/05/19 02:05:31;;;;;;;10.02;2.67;;;;;;;7.15;71.96;95000.78;5063301;28;20017;-72
2022/05/19 02:08:00;;;;;;;4.60;2.28;;;;;;;7.14;71.98;95004.47;5062161;28;20088;-72
2022/05/19 02:10:29;;;;;;;4.90;2.58;;;;;;;7.16;71.80;95002.34;5062866;28;20041;-73
2022/05/19 02:12:58;;;;;;;7.22;3.25;;;;;;;7.18;71.34;95008.19;5063125;28;20024;-73
2022/05/19 02:15:27;;;;;;;5.78;3.20;;;;;;;7.17;71.77;95001.31;5062998;28;20066;-73
2022/05/19 02:17:53;;;;;;;7.70;3.75;;;;;;;7.18;72.60;94997.59;5063045;28;20020;-74
2022/05/19 02:20:23;;;;;;;11.93;6.03;;;;;;;7.18;73.31;95006.34;5062902;28;20013;-73
2022/05/19 02:22:49;;;;;;;14.60;6.50;;;;;;;7.25;73.72;95007.97;5062840;28;20049;-73
2022/05/19 02:25:23;;;;;;;15.82;6.53;;;;;;;7.23;73.84;95000.25;5062993;28;20032;-73
2022/05/19 02:28:02;;;;;;;15.80;6.55;;;;;;;7.25;73.88;95003.44;5062890;28;20262;-73
2022/05/19 02:30:31;;;;;;;9.82;5.88;;;;;;;7.28;74.02;95005.56;5062804;28;20029;-73
2022/05/19 02:32:56;;;;;;;7.80;4.88;;;;;;;7.29;73.82;95001.84;5062632;28;20028;-73
2022/05/19 02:35:23;;;;;;;9.75;5.47;;;;;;;7.32;73.82;95001.31;5062862;28;20037;-72
2022/05/19 02:37:49;;;;;;;8.73;4.57;;;;;;;7.38;73.88;95004.78;5062748;28;20028;-73
2022/05/19 02:40:17;;;;;;;11.77;5.20;;;;;;;7.42;73.47;95011.94;5062766;28;20021;-73
2022/05/19 02:42:43;;;;;;;12.85;5.03;;;;;;;7.40;73.37;95007.97;5062859;28;20032;-73
2022/05/19 02:45:10;;;;;;;8.30;5.07;;;;;;;7.43;73.35;95008.22;5062580;28;20048;-73
2022/05/19 02:47:36;;;;;;;9.18;4.80;;;;;;;7.44;73.20;95003.72;5045022;28;20266;-73
2022/05/19 02:50:03;;;;;;;11.95;4.78;;;;;;;7.43;73.30;95004.78;5062539;28;20031;-73
2022/05/19 02:52:28;;;;;;;8.15;3.83;;;;;;;7.44;73.10;95006.38;5062545;28;20028;-73
2022/05/19 02:55:16;;;;;;;7.07;3.80;;;;;;;7.46;72.88;95003.47;5062373;28;20342;-73
2022/05/19 02:57:43;;;;;;;9.48;3.50;;;;;;;7.48;72.57;95004.00;5062864;28;20028;-73
2022/05/19 03:00:15;;;;;;;9.80;4.13;;;;;;;7.47;72.25;95005.03;5062460;28;20027;-73
2022/05/19 03:02:41;;;;;;;6.40;3.50;;;;;;;7.48;72.15;95004.78;5062405;28;20021;-74
2022/05/19 03:05:08;;;;;;;7.78;3.72;;;;;;;7.47;72.11;95007.69;5062377;28;20028;-74
2022/05/19 03:07:34;;;;;;;14.13;3.50;;;;;;;7.42;71.75;95005.84;5062385;28;20061;-74
2022/05/19 03:09:59;;;;;;;13.40;3.80;;;;;;;7.40;71.80;95011.41;5054191;28;20048;-74
2022/05/19 03:12:25;;;;;;;6.22;3.70;;;;;;;7.40;71.72;95003.44;5062509;28;20028;-74
2022/05/19 03:14:50;;;;;;;9.77;4.10;;;;;;;7.41;71.12;95007.69;5062641;28;20021;-74
2022/05/19 03:17:15;;;;;;;9.80;4.28;;;;;;;7.40;70.90;95014.06;5062521;28;20017;-74
2022/05/19 03:19:41;;;;;;;18.20;6.47;;;;;;;7.33;70.76;95013.53;5065199;28;20024;-74
2022/05/19 03:22:07;;;;;;;15.98;7.38;;;;;;;7.29;70.69;95012.47;5066204;28;20036;-74
2022/05/19 03:24:33;;;;;;;18.30;7.85;;;;;;;7.29;70.97;95009.81;5066125;28;20095;-74
2022/05/19 03:26:59;;;;;;;17.63;8.77;;;;;;;7.25;70.75;95006.09;5064965;28;20200;-74
2022/05/19 03:29:25;;;;;;;20.90;8.60;;;;;;;7.32;70.90;95019.09;5066067;28;20028;-73
2022/05/19 03:31:51;;;;;;;13.52;6.78;;;;;;;7.34;70.92;95023.06;5065914;28;20025;-74
2022/05/19 03:34:17;;;;;;;12.27;6.07;;;;;;;7.36;71.17;95022.81;5064796;28;20031;-74
2022/05/19 03:36:48;;;;;;;11.32;4.97;;;;;;;7.37;70.65;95030.50;5066031;28;20020;-74
2022/05/19 03:39:14;;;;;;;11.35;5.60;;;;;;;7.35;70.61;95034.50;5065863;28;20314;-74
2022/05/19 03:41:39;;;;;;;16.23;5.15;;;;;;;7.36;70.25;95044.03;5065829;28;20017;-74
2022/05/19 03:44:05;;;;;;;9.38;4.47;;;;;;;7.33;70.76;95045.34;5065806;28;20021;-74
2022/05/19 03:46:31;;;;;;;13.25;5.15;;;;;;;7.38;71.35;95036.59;5065695;28;20021;-74
2022/05/19 03:48:56;;;;;;;12.65;6.32;;;;;;;7.36;71.37;95050.13;5065763;28;20208;-74
2022/05/19 03:51:24;;;;;;;15.23;7.53;;;;;;;7.39;72.09;95057.56;5065627;28;20391;-74
2022/05/19 03:53:51;;;;;;;11.52;6.57;;;;;;;7.44;72.46;95060.22;5065584;28;20036;-74
2022/05/19 03:56:18;;;;;;;16.85;7.35;;;;;;;7.46;72.75;95062.59;5065496;28;20066;-73
2022/05/19 03:58:44;;;;;;;18.27;8.93;;;;;;;7.46;73.26;95061.81;5065584;28;20061;-74
2022/05/19 04:01:09;;;;;;;15.73;8.15;;;;;;;7.44;73.73;95062.88;5065346;28;20028;-73
2022/05/19 04:03:35;;;;;;;18.80;9.13;;;;;;;7.51;73.96;95072.41;5065396;28;20316;-73
2022/05/19 04:06:01;;;;;;;15.52;7.97;;;;;;;7.58;73.52;95078.28;5065445;28;20028;-73
2022/05/19 04:08:26;;;;;;;16.17;7.85;;;;;;;7.63;73.15;95065.00;5065256;28;20231;-73
2022/05/19 04:10:52;;;;;;;16.35;8.43;;;;;;;7.70;73.55;95073.50;5065177;28;20052;-73
2022/05/19 04:13:17;;;;;;;16.65;7.78;;;;;;;7.76;72.97;95063.69;5065056;28;20362;-74
2022/05/19 04:15:43;;;;;;;15.50;8.43;;;;;;;7.82;72.97;95074.03;5065102;28;20088;-73
2022/05/19 04:18:09;;;;;;;23.80;8.77;;;;;;;7.83;73.14;95070.31;5065153;28;20051;-74
2022/05/19 04:20:34;;;;;;;14.88;8.55;;;;;;;7.86;73.13;95070.84;5065119;28;20017;-74
2022/05/19 04:23:01;;;;;;;16.02;8.77;;;;;;;7.94;73.71;95075.66;5065167;28;20028;-73
2022/05/19 04:25:29;;;;;;;20.30;9.10;;;;;;;7.95;73.62;95078.03;5065060;28;20059;-74
2022/05/19 04:27:54;;;;;;;19.08;9.68;;;;;;;7.98;73.39;95080.16;5064857;28;20028;-74
2022/05/19 04:30:20;;;;;;;18.50;9.05;;;;;;;7.99;73.10;95075.63;5063795;28;20033;-74
2022/05/19 04:32:47;;;;;;;15.40;9.70;;;;;;;8.04;73.58;95078.31;5064841;28;20020;-74
2022/05/19 04:35:13;;;;;;;20.85;9.60;;;;;;;8.03;73.35;95074.03;5064577;28;20017;-73
2022/05/19 04:37:39;;;;;;;16.08;9.68;;;;;;;8.01;72.97;95071.66;5064593;28;20028;-74
2022/05/19 04:40:05;;;;;;;20.75;9.57;;;;;;;8.01;73.41;95076.94;5063593;28;20135;-74
2022/05/19 04:42:31;;;;;;;15.60;10.05;;;;;;;8.05;73.62;95071.91;5064308;28;20096;-74
2022/05/19 04:44:57;;;;;;;20.52;9.75;;;;;;;8.06;73.01;95089.44;5064471;28;20017;-73
2022/05/19 04:47:23;;;;;;;13.35;8.52;;;;;;;8.08;73.09;95078.53;5064440;28;20275;-74
2022/05/19 04:49:49;;;;;;;17.33;10.10;;;;;;;8.00;72.30;95085.22;5064442;28;20021;-73
2022/05/19 04:52:14;;;;;;;23.48;11.43;;;;;;;7.93;72.56;95082.00;5064512;28;20350;-73
2022/05/19 04:54:40;;;;;;;18.15;9.27;;;;;;;7.89;72.95;95086.25;5064426;28;20369;-73
2022/05/19 04:57:07;;;;;;;31.88;11.18;;;;;;;7.97;73.78;95085.72;5064294;28;20214;-84
2022/05/19 04:59:35;;;;;;;18.15;9.90;;;;;;;8.10;74.00;95087.84;5047374;28;20027;-78
2022/05/19 05:02:01;;;;;;;21.08;10.07;;;;;;;8.18;73.58;95087.31;5064522;28;20013;-78
2022/05/19 05:04:26;;;;;;;17.33;9.73;;;;;;;8.23;73.00;95095.25;5064471;28;20020;-77
2022/05/19 05:06:53;;;;;;;17.67;9.32;;;;;;;8.31;73.54;95093.94;5064200;28;20349;-75
2022/05/19 05:09:18;;;;;;;21.75;9.43;;;;;;;8.31;72.93;95093.16;5063876;28;20079;-79
2022/05/19 05:11:43;;;;;;;26.45;10.13;;;;;;;8.32;72.43;95108.78;5063924;28;20025;-73
2022/05/19 05:14:09;;;;;;;16.17;10.23;;;;;;;8.41;74.04;95109.09;5045867;28;20533;-75
2022/05/19 05:16:34;;;;;;;19.58;9.18;;;;;;;8.47;72.08;95104.53;5063636;28;20048;-75
2022/05/19 05:19:00;;;;;;;14.45;8.35;;;;;;;8.48;71.66;95106.94;5063675;28;20044;-75
2022/05/19 05:21:25;;;;;;;14.15;8.30;;;;;;;8.43;71.72;95109.63;5063692;28;20020;-76
2022/05/19 05:23:50;;;;;;;16.70;8.77;;;;;;;8.58;71.79;95096.28;5063947;28;20013;-75
2022/05/19 05:26:16;;;;;;;14.73;8.35;;;;;;;8.72;71.71;95101.06;5063908;28;20312;-76
2022/05/19 05:28:41;;;;;;;19.80;8.13;;;;;;;8.91;71.08;95117.19;5063444;28;20023;-74
2022/05/19 05:31:08;;;;;;;12.57;8.82;;;;;;;9.10;69.76;95106.75;5063368;28;20063;-74
2022/05/19 05:33:33;;;;;;;17.70;9.15;;;;;;;9.14;69.09;95105.94;5062929;28;20056;-75
2022/05/19 05:35:59;;;;;;;16.70;8.93;;;;;;;9.16;69.54;95103.00;5063416;28;20021;-74
2022/05/19 05:38:25;;;;;;;12.57;8.48;;;;;;;9.28;69.96;95103.50;5063414;28;20021;-74
2022/05/19 05:40:50;;;;;;;13.93;8.75;;;;;;;9.33;69.44;95111.44;5062665;28;20025;-74
2022/05/19 05:43:19;;;;;;;13.48;7.40;;;;;;;9.44;69.05;95113.00;5061489;28;20021;-74
2022/05/19 05:45:45;;;;;;;17.67;7.72;;;;;;;9.58;69.54;95115.81;5061525;28;20044;-75
2022/05/19 05:48:12;;;;;;;13.02;7.82;;;;;;;9.73;69.73;95120.25;5061693;28;20327;-75
2022/05/19 05:50:38;;;;;;;13.75;9.25;;;;;;;9.95;70.09;95114.53;5061715;28;20027;-74
2022/05/19 05:53:05;;;;;;;16.33;7.85;;;;;;;10.17;70.02;95119.38;5061786;28;20311;-74
2022/05/19 05:55:30;;;;;;;13.20;8.23;;;;;;;10.24;67.01;95114.56;5061815;28;20307;-73
2022/05/19 05:57:56;;;;;;;16.55;7.75;;;;;;;10.11;67.21;95117.84;5063012;28;20028;-73
2022/05/19 06:00:22;;;;;;;16.23;8.32;;;;;;;10.08;67.39;95115.75;5063066;28;20060;-73
2022/05/19 06:02:51;;;;;;;19.15;9.07;;;;;;;10.00;66.87;95129.66;5063149;28;20369;-74
2022/05/19 06:05:17;;;;;;;13.23;8.48;;;;;;;9.93;67.20;95130.00;5062975;28;20025;-74
2022/05/19 06:07:43;;;;;;;15.18;8.60;;;;;;;9.84;67.81;95116.44;5062779;28;20099;-75
2022/05/19 06:10:10;;;;;;;18.95;8.43;;;;;;;9.80;68.18;95119.94;5062454;28;20067;-74
2022/05/19 06:12:36;;;;;;;17.17;8.52;;;;;;;9.70;68.26;95123.47;5062878;28;20099;-74
2022/05/19 06:15:02;;;;;;;15.48;8.23;;;;;;;9.74;68.87;95121.84;5062906;28;20024;-74
2022/05/19 06:17:27;;;;;;;18.75;8.57;;;;;;;9.75;68.65;95125.28;5063019;28;20016;-74
2022/05/19 06:19:53;;;;;;;21.85;9.23;;;;;;;9.75;68.83;95128.78;5062821;28;20086;-74
2022/05/19 06:22:22;;;;;;;19.05;9.75;;;;;;;9.77;69.24;95126.63;5062971;28;20074;-74
2022/05/19 06:24:47;;;;;;;14.57;8.18;;;;;;;9.79;68.96;95123.66;5062765;28;20028;-74
2022/05/19 06:27:13;;;;;;;18.98;9.55;;;;;;;9.82;68.93;95131.13;5062690;28;20021;-74
2022/05/19 06:29:38;;;;;;;16.27;8.73;;;;;;;9.84;69.06;95137.75;5062641;28;20025;-74
2022/05/19 06:32:04;;;;;;;21.50;9.57;;;;;;;9.90;69.26;95132.41;5062592;28;20164;-74
2022/05/19 06:34:29;;;;;;;17.45;9.40;;;;;;;9.91;68.34;95128.66;5062545;28;20036;-74
2022/05/19 06:36:56;;;;;;;15.98;9.52;;;;;;;9.95;70.12;95137.69;5062669;28;20048;-74
2022/05/19 06:39:21;;;;;;;20.08;9.35;;;;;;;10.01;69.29;95128.56;5062631;28;20048;-74
2022/05/19 06:42:02;;;;;;;14.38;8.77;;;;;;;10.08;68.61;95139.72;5062640;28;20040;-74
2022/05/19 06:44:36;;;;;;;14.15;8.48;;;;;;;10.17;67.93;95143.38;5062500;28;20311;-74
2022/05/19 06:47:03;;;;;;;16.25;8.98;;;;;;;10.25;67.05;95137.44;5062396;28;20315;-74
2022/05/19 06:49:29;;;;;;;22.48;8.70;;;;;;;10.27;67.89;95131.84;5062209;28;20366;-74
2022/05/19 06:51:55;;;;;;;19.27;9.85;;;;;;;10.31;67.96;95138.22;5062218;28;20033;-74
2022/05/19 06:54:21;;;;;;;19.95;9.15;;;;;;;10.39;67.80;95134.19;5065049;28;20048;-74
2022/05/19 06:56:47;;;;;;;18.75;9.25;;;;;;;10.51;67.39;95128.47;5066554;28;20024;-74
2022/05/19 06:59:15;;;;;;;18.50;10.07;;;;;;;10.60;66.52;95138.25;5066276;28;20071;-74
2022/05/19 07:01:42;;;;;;;14.65;8.35;;;;;;;10.71;65.92;95133.59;5066509;28;20052;-74
2022/05/19 07:04:07;;;;;;;17.80;8.30;;;;;;;10.79;66.13;95133.00;5066521;28;20043;-75
2022/05/19 07:06:33;;;;;;;11.30;6.05;;;;;;;10.86;64.39;95142.53;5066199;28;20041;-74
2022/05/19 07:08:58;;;;;;;11.15;6.35;;;;;;;10.98;63.35;95150.94;5066309;28;20040;-74
2022/05/19 07:11:27;;;;;;;9.85;5.50;;;;;;;11.06;61.88;95142.31;5066250;28;20021;-75
2022/05/19 07:13:55;;;;;;;16.92;4.93;;;;;;;11.13;60.94;95147.28;5066262;28;20017;-75
2022/05/19 07:16:21;;;;;;;10.32;4.93;;;;;;;11.12;59.93;95146.50;5066446;28;20023;-75
2022/05/19 07:18:46;;;;;;;9.98;4.70;;;;;;;11.20;60.46;95140.53;5066137;28;20017;-75
2022/05/19 07:21:12;;;;;;;6.28;4.07;;;;;;;11.29;59.09;95137.22;5065762;28;20023;-75
2022/05/19 07:23:39;;;;;;;9.65;4.38;;;;;;;11.34;57.83;95145.19;5066037;28;20101;-75
2022/05/19 07:26:06;;;;;;;8.63;3.60;;;;;;;11.40;56.09;95138.72;5066086;28;20250;-75
2022/05/19 07:28:31;;;;;;;13.55;3.85;;;;;;;11.39;56.52;95145.91;5065948;28;20039;-74
2022/05/19 07:30:57;;;;;;;7.00;3.58;;;;;;;11.51;56.33;95139.38;5065728;28;20020;-74
2022/05/19 07:33:22;;;;;;;11.10;2.65;;;;;;;11.56;52.96;95140.09;5065970;28;20024;-75
2022/05/19 07:35:49;;;;;;;12.25;2.85;;;;;;;11.66;50.59;95136.47;5065580;28;20071;-74
2022/05/19 07:38:15;;;;;;;6.22;2.47;;;;;;;11.74;51.06;95137.72;5065795;28;20024;-75
2022/05/19 07:40:42;;;;;;;7.43;2.63;;;;;;;11.84;51.58;95133.03;5065762;28;20016;-74
2022/05/19 07:45:52;;;;;;;9.02;2.15;;;;;;;12.06;50.02;95131.66;5065620;28;20051;-74
2022/05/19 07:48:17;;;;;;;9.30;2.35;;;;;;;12.18;49.36;95128.53;5065347;28;20029;-75
2022/05/19 07:50:43;;;;;;;8.40;2.20;;;;;;;12.28;45.25;95130.28;5065620;28;20040;-74
2022/05/19 07:53:09;;;;;;;5.82;2.15;;;;;;;12.41;49.00;95126.81;5065662;28;20319;-75
2022/05/19 07:55:35;;;;;;;9.48;2.95;;;;;;;12.51;47.91;95129.31;5065567;28;20036;-75
2022/05/19 07:58:01;;;;;;;9.10;2.90;;;;;;;12.58;50.16;95127.06;5065320;28;20028;-74
2022/05/19 08:00:26;;;;;;;5.78;2.63;;;;;;;12.69;49.26;95140.28;5065417;28;20095;-75
2022/05/19 08:02:52;;;;;;;5.00;2.38;;;;;;;12.70;49.31;95139.16;5065348;28;20353;-74
2022/05/19 08:05:17;;;;;;;4.57;1.83;;;;;;;12.74;47.05;95137.50;5065326;28;20093;-74
2022/05/19 08:07:43;;;;;;;12.93;2.47;;;;;;;12.82;47.50;95136.81;5065104;28;20115;-76
2022/05/19 08:10:20;;;;;;;13.23;2.33;;;;;;;12.96;48.67;95134.16;5064915;28;20079;-74
2022/05/19 08:15:37;;;;;;;12.05;2.45;;;;;;;13.25;46.46;95140.00;5065309;28;20027;-74
2022/05/19 08:18:05;;;;;;;8.20;1.88;;;;;;;13.39;46.87;95120.47;5065116;28;20025;-74
2022/05/19 08:20:31;;;;;;;6.38;1.88;;;;;;;13.53;44.78;95120.47;5064933;28;20024;-74
2022/05/19 08:22:57;;;;;;;6.47;2.30;;;;;;;13.63;45.10;95125.59;5065015;28;20327;-74
2022/05/19 08:25:27;;;;;;;10.82;2.53;;;;;;;13.76;45.04;95122.13;5047301;28;20036;-74
2022/05/19 08:27:55;;;;;;;8.30;2.42;;;;;;;13.76;43.03;95124.78;5065060;28;20016;-74
2022/05/19 08:30:21;;;;;;;3.78;1.27;;;;;;;13.87;40.22;95125.34;5065013;28;20062;-74
2022/05/19 08:32:49;;;;;;;10.98;2.03;;;;;;;13.93;34.60;95126.03;5064918;28;20021;-74
2022/05/19 08:35:16;;;;;;;7.57;1.10;;;;;;;13.94;34.91;95124.91;5064767;28;20032;-74
2022/05/19 08:37:41;;;;;;;5.07;0.95;;;;;;;14.05;33.84;95123.59;5064703;28;20021;-74
2022/05/19 08:40:08;;;;;;;3.30;1.40;;;;;;;14.17;38.34;95123.84;5064612;28;20017;-74
2022/05/19 08:42:37;;;;;;;4.18;0.80;;;;;;;14.16;33.28;95124.94;5064674;28;20075;-74
2022/05/19 08:45:05;;;;;;;5.70;0.95;;;;;;;14.20;33.22;95128.59;5064586;28;20047;-74
2022/05/19 08:47:37;;;;;;;1.60;0.73;;;;;;;14.19;32.96;95127.03;5064503;28;20224;-74
2022/05/19 08:50:06;;;;;;;5.13;0.95;;;;;;;14.24;34.81;95129.56;5064531;28;20024;-74
2022/05/19 08:52:45;;;;;;;2.35;0.88;;;;;;;14.30;35.53;95127.56;5064371;28;20029;-74
2022/05/19 08:55:14;;;;;;;5.50;1.08;;;;;;;14.45;34.96;95121.06;5064212;28;20311;-74
2022/05/19 08:58:22;;;;;;;4.65;0.98;;;;;;;14.64;33.82;95112.81;5064098;28;20016;-74
2022/05/19 09:00:54;;;;;;;4.10;0.90;;;;;;;14.82;32.92;95111.81;5009881;28;20068;-75
2022/05/19 09:03:32;;;;;;;2.60;1.00;;;;;;;14.89;32.26;95108.66;5064187;28;20027;-75
2022/05/19 09:06:29;;;;;;;4.97;1.10;;;;;;;15.02;32.37;95104.28;5064195;28;20040;-75
2022/05/19 09:09:06;;;;;;;3.60;1.00;;;;;;;15.08;32.56;95110.31;5063958;28;20342;-75
2022/05/19 09:11:52;;;;;;;2.47;0.82;;;;;;;15.03;32.46;95101.28;5063872;28;20033;-75
2022/05/19 09:14:27;;;;;;;6.05;1.10;;;;;;;15.06;35.25;95105.25;5064061;28;20096;-75
2022/05/19 09:16:57;;;;;;;5.38;1.02;;;;;;;15.12;33.05;95093.28;5063944;28;20265;-75
2022/05/19 09:19:29;;;;;;;2.17;1.10;;;;;;;15.24;33.42;95095.34;5063989;28;20337;-75
2022/05/19 09:22:26;;;;;;;4.25;1.00;;;;;;;15.35;32.05;95085.13;5063907;28;20016;-75
2022/05/19 09:24:53;;;;;;;5.97;1.25;;;;;;;15.40;34.21;95083.06;5047745;28;20067;-75
2022/05/19 09:27:22;;;;;;;2.42;1.33;;;;;;;15.50;35.80;95086.56;5063765;28;20021;-75
2022/05/19 09:29:50;;;;;;;3.63;1.45;;;;;;;15.60;33.60;95083.56;5063807;28;20131;-75
2022/05/19 09:32:34;;;;;;;2.70;1.05;;;;;;;15.65;32.35;95075.34;5063515;28;20036;-75
2022/05/19 09:35:42;;;;;;;3.97;1.30;;;;;;;15.77;31.88;95078.25;5063726;28;20032;-75
2022/05/19 09:38:07;;;;;;;1.80;0.95;;;;;;;15.76;32.24;95084.72;5053454;28;20028;-75
2022/05/19 09:40:38;;;;;;;12.48;1.52;;;;;;;15.83;32.79;95074.31;5045442;28;20109;-75
2022/05/19 09:43:14;;;;;;;6.47;1.35;;;;;;;16.00;33.50;95075.41;5063414;28;20040;-75
2022/05/19 09:45:47;;;;;;;5.35;1.30;;;;;;;16.12;31.03;95075.56;5063487;28;20020;-75
2022/05/19 09:48:14;;;;;;;3.45;1.42;;;;;;;16.13;30.97;95079.03;5063519;28;20028;-75
2022/05/19 09:50:47;;;;;;;3.33;1.17;;;;;;;16.18;31.96;95074.28;5063264;28;20021;-75
2022/05/19 09:53:26;;;;;;;6.72;1.75;;;;;;;16.27;31.75;95070.78;5063207;28;20204;-75
2022/05/19 09:56:03;;;;;;;3.05;1.20;;;;;;;16.20;30.73;95082.81;5063387;28;20092;-75
2022/05/19 09:58:34;;;;;;;3.45;1.55;;;;;;;16.10;30.81;95067.00;5045382;28;20220;-74
2022/05/19 10:01:15;;;;;;;2.88;1.00;;;;;;;16.07;31.89;95069.53;5063528;28;20028;-75
2022/05/19 10:03:56;;;;;;;8.68;1.33;;;;;;;16.16;32.01;95071.13;5063248;28;20021;-75
2022/05/19 10:06:51;;;;;;;2.35;1.30;;;;;;;16.18;32.80;95071.59;5063240;28;20227;-75
2022/05/19 10:09:23;;;;;;;2.53;1.35;;;;;;;16.14;33.10;95051.00;5063121;28;20082;-74
2022/05/19 10:11:50;;;;;;;;;;;;;;;16.17;33.00;95061.94;5063216;28;20029;-74
2022/05/19 10:14:19;;;;;;;5.07;1.40;;;;;;;16.23;34.03;95049.88;5063100;28;19905;-75
2022/05/19 10:17:06;;;;;;;2.08;1.13;;;;;;;16.32;31.79;95047.16;5063068;28;20036;-75
2022/05/19 10:19:48;;;;;;;3.50;1.20;;;;;;;16.24;32.01;95058.75;5062986;28;20021;-75
2022/05/19 10:22:43;;;;;;;3.50;1.17;;;;;;;16.31;33.26;95045.59;5062860;28;20024;-74
2022/05/19 10:25:28;;;;;;;5.43;1.40;;;;;;;16.31;34.36;95047.50;5062314;28;20028;-75
2022/05/19 10:31:18;;;;;;;2.72;1.20;;;;;;;16.35;31.36;95035.78;5008836;28;20121;-74
2022/05/19 10:34:06;;;;;;;2.78;1.42;;;;;;;16.35;31.91;95035.00;5062758;28;20223;-74
2022/05/19 10:37:09;;;;;;;8.02;1.55;;;;;;;16.43;31.41;95026.91;5062689;28;20020;-74
2022/05/19 10:39:46;;;;;;;;;;;;;;;16.45;31.67;95034.66;5062830;28;20036;-74
2022/05/19 10:43:04;;;;;;;13.45;1.40;;;;;;;16.44;30.35;95028.50;5062384;28;20225;-74
2022/05/19 10:45:37;;;;;;;2.45;1.25;;;;;;;16.41;30.74;95029.13;4981527;28;20022;-75
2022/05/19 10:48:24;;;;;;;6.43;1.50;;;;;;;16.49;31.09;95021.34;4981891;28;20030;-74
2022/05/19 10:51:12;;;;;;;1.98;1.17;;;;;;;16.54;30.07;95021.16;5042423;28;20100;-75
2022/05/19 10:53:48;;;;;;;6.03;1.25;;;;;;;16.67;32.33;95019.38;5062403;28;20378;-75
2022/05/19 10:57:01;;;;;;;12.18;1.80;;;;;;;16.91;31.83;95018.81;5062346;28;20016;-75
2022/05/19 10:59:41;;;;;;;10.18;1.33;;;;;;;16.98;30.11;95019.91;5026804;28;20040;-75
2022/05/19 11:02:38;;;;;;;9.10;1.85;;;;;;;16.94;31.13;95021.66;5044466;28;20037;-75
2022/05/19 11:05:21;;;;;;;9.10;1.63;;;;;;;17.00;29.86;95024.97;5062224;28;20024;-74
2022/05/19 11:07:57;;;;;;;2.78;1.23;;;;;;;16.94;29.37;95026.25;5062344;28;20053;-75
2022/05/19 11:10:37;;;;;;;6.07;1.40;;;;;;;16.93;29.59;95006.59;5062138;28;20327;-75
2022/05/19 11:13:30;;;;;;;2.33;1.10;;;;;;;17.05;31.19;95014.78;5062382;28;20025;-74
2022/05/19 11:16:22;;;;;;;2.13;1.20;;;;;;;17.22;29.17;95007.72;5062389;28;20041;-75
2022/05/19 11:19:09;;;;;;;4.13;1.40;;;;;;;17.31;30.93;95015.75;5053206;28;20045;-74
2022/05/19 11:21:55;;;;;;;7.00;1.80;;;;;;;17.39;28.81;95004.13;5062374;28;20101;-75
2022/05/19 11:24:26;;;;;;;9.95;1.85;;;;;;;17.50;30.94;95004.50;5061876;28;20025;-75
2022/05/19 11:27:14;;;;;;;4.57;1.75;;;;;;;17.77;30.67;95003.97;5062104;28;20031;-75
2022/05/19 11:29:49;;;;;;;4.43;1.40;;;;;;;17.95;30.49;94987.66;5062299;28;20029;-75
2022/05/19 11:32:33;;;;;;;4.13;1.33;;;;;;;18.15;29.17;94980.63;5062137;28;20342;-75
2022/05/19 11:35:03;;;;;;;8.10;1.33;;;;;;;18.25;27.82;94974.81;5062160;28;20397;-75
2022/05/19 11:37:38;;;;;;;7.57;1.88;;;;;;;18.35;28.17;94977.06;5062397;28;20220;-75
2022/05/19 11:40:15;;;;;;;2.70;1.35;;;;;;;18.31;26.68;94976.16;5063924;28;20070;-75
2022/05/19 11:43:01;;;;;;;8.45;1.70;;;;;;;18.37;28.47;94972.13;5065716;28;20028;-75
2022/05/19 11:45:30;;;;;;;3.25;1.25;;;;;;;18.48;27.89;94974.38;5065820;28;20040;-75
2022/05/19 11:56:29;;;;;;;4.82;1.60;;;;;;;18.24;26.19;94965.94;5065892;28;20090;-75
2022/05/19 11:58:57;;;;;;;7.93;2.17;;;;;;;18.33;27.58;94959.66;5065541;28;20021;-75
2022/05/19 12:01:29;;;;;;;2.20;1.13;;;;;;;18.43;26.19;94951.13;5065437;28;20036;-75
2022/05/19 12:04:08;;;;;;;2.95;1.60;;;;;;;18.55;27.17;94958.44;5065365;28;20029;-74
2022/05/19 12:06:47;;;;;;;4.43;1.65;;;;;;;18.84;27.80;94939.31;5065253;28;20021;-75
2022/05/19 12:09:24;;;;;;;15.13;1.50;;;;;;;19.20;27.92;94940.41;5065229;28;20248;-75